createdAt,value
2022-07-28T12:49:54.000Z,0.958008
2022-07-28T12:50:14.000Z,25.323242
2022-07-28T12:50:35.000Z,16.625977
2022-07-28T12:50:55.000Z,16.706055
2022-07-28T12:51:15.000Z,33.361328
2022-07-28T12:51:36.000Z,41.966797
2022-07-28T12:51:56.000Z,26.589844
2022-07-28T12:52:16.000Z,11.572266
2022-07-28T12:52:36.000Z,0.111328
2022-07-28T12:52:57.000Z,0.116211
2022-07-28T12:53:44.000Z,0.029297
2022-07-28T12:54:04.000Z,0.096680
2022-07-28T12:54:05.000Z,3.045898
2022-07-28T12:55:39.000Z,36.173828
2022-07-28T12:55:59.000Z,0.122070
2022-07-28T12:56:19.000Z,0.116211
2022-07-28T12:56:40.000Z,9.132812
2022-07-28T12:57:00.000Z,0.219727
2022-07-28T12:57:20.000Z,0.125977
2022-07-28T12:57:40.000Z,1.426758
2022-07-28T12:58:01.000Z,65.588867
2022-07-28T12:58:21.000Z,15.437500
2022-07-28T12:58:41.000Z,29.958984
2022-07-28T12:59:01.000Z,29.398438
2022-07-28T12:59:22.000Z,38.530273
2022-07-28T12:59:42.000Z,47.077148
2022-07-28T13:00:02.000Z,44.281250
2022-07-28T13:00:22.000Z,35.748047
2022-07-28T13:00:43.000Z,37.606445
2022-07-28T13:01:03.000Z,3.681641
2022-07-28T13:01:23.000Z,52.517578
2022-07-28T13:01:44.000Z,65.896484
2022-07-28T13:02:04.000Z,49.159180
2022-07-28T13:02:24.000Z,9.922852
2022-07-28T13:02:44.000Z,2.041992
2022-07-28T13:03:05.000Z,0.131836
2022-07-28T13:03:25.000Z,6.850586
2022-07-28T13:03:45.000Z,21.576172
2022-07-28T13:04:05.000Z,0.130859
2022-07-28T13:04:26.000Z,0.112305
2022-07-28T13:04:46.000Z,0.124023
2022-07-28T13:04:51.000Z,2.001953
2022-07-28T13:13:57.000Z,0.116211
2022-07-28T13:14:17.000Z,0.124023
2022-07-28T13:14:37.000Z,0.111328
2022-07-28T13:14:46.000Z,2.006836
2022-07-28T13:23:44.000Z,0.118164
2022-07-28T13:24:04.000Z,0.103516
2022-07-28T13:24:24.000Z,0.125977
2022-07-28T13:24:34.000Z,2.003906
2022-07-28T13:33:28.000Z,0.129883
2022-07-28T13:33:49.000Z,0.133789
2022-07-28T13:34:09.000Z,0.109375
2022-07-28T13:34:18.000Z,2.004883
2022-07-28T13:43:27.000Z,0.105469
2022-07-28T13:43:47.000Z,0.103516
2022-07-28T13:44:08.000Z,0.103516
2022-07-28T13:44:17.000Z,2.003906
2022-07-28T13:53:23.000Z,0.138672
2022-07-28T13:53:43.000Z,0.145508
2022-07-28T13:54:03.000Z,0.128906
2022-07-28T13:54:13.000Z,2.007812
2022-07-28T14:02:23.000Z,0.164062
2022-07-28T14:02:44.000Z,0.134766
2022-07-28T14:03:04.000Z,0.176758
2022-07-28T14:03:13.000Z,2.019531
2022-07-28T14:07:19.000Z,0.268555
2022-07-28T14:07:39.000Z,0.259766
2022-07-28T14:07:59.000Z,0.284180
2022-07-28T14:08:09.000Z,2.009766
2022-07-28T14:11:41.000Z,0.201172
2022-07-28T14:12:01.000Z,0.187500
2022-07-28T14:12:22.000Z,0.196289
2022-07-28T14:12:31.000Z,2.000977
2022-07-28T14:19:07.000Z,0.124023
2022-07-28T14:19:27.000Z,0.129883
2022-07-28T14:19:47.000Z,0.134766
2022-07-28T14:19:56.000Z,2.003906
2022-07-28T14:28:10.000Z,0.106445
2022-07-28T14:28:30.000Z,0.116211
2022-07-28T14:28:51.000Z,0.125977
2022-07-28T14:29:00.000Z,2.001953
2022-07-28T14:37:34.000Z,0.119141
2022-07-28T14:37:55.000Z,0.115234
2022-07-28T14:38:15.000Z,0.102539
2022-07-28T14:38:24.000Z,2.003906
2022-07-28T14:46:58.000Z,0.133789
2022-07-28T14:47:18.000Z,0.113281
2022-07-28T14:47:38.000Z,0.132812
2022-07-28T14:47:48.000Z,2.002930
2022-07-28T14:57:25.000Z,0.117188
2022-07-28T14:57:45.000Z,0.117188
2022-07-28T14:58:06.000Z,0.115234
2022-07-28T14:58:15.000Z,2.002930
2022-07-28T15:07:47.000Z,0.121094
2022-07-28T15:08:08.000Z,0.124023
2022-07-28T15:08:28.000Z,0.106445
2022-07-28T15:08:37.000Z,2.003906
2022-07-28T15:17:46.000Z,0.099609
2022-07-28T15:18:06.000Z,0.133789
2022-07-28T15:18:26.000Z,0.119141
2022-07-28T15:18:36.000Z,2.000977
2022-07-28T15:27:53.000Z,0.131836
2022-07-28T15:28:14.000Z,0.114258
2022-07-28T15:28:34.000Z,0.115234
2022-07-28T15:28:43.000Z,2.002930
2022-07-28T15:37:50.000Z,0.121094
2022-07-28T15:38:10.000Z,0.117188
2022-07-28T15:38:31.000Z,0.101562
2022-07-28T15:38:40.000Z,0.969727
2022-07-28T15:42:17.000Z,0.978516
2022-07-28T15:42:37.000Z,3.290039
2022-07-28T15:42:57.000Z,11.211914
2022-07-28T15:43:17.000Z,14.774414
2022-07-28T15:43:38.000Z,41.786133
2022-07-28T15:43:58.000Z,29.037109
2022-07-28T15:44:18.000Z,35.817383
2022-07-28T15:44:38.000Z,19.873047
2022-07-28T15:44:59.000Z,15.806641
2022-07-28T15:45:19.000Z,22.533203
2022-07-28T15:45:39.000Z,18.024414
2022-07-28T15:46:00.000Z,43.583008
2022-07-28T15:46:20.000Z,27.543945
2022-07-28T15:46:40.000Z,14.583984
2022-07-28T15:47:00.000Z,13.444336
2022-07-28T15:47:21.000Z,23.970703
2022-07-28T15:47:41.000Z,30.416016
2022-07-28T15:48:01.000Z,33.155273
2022-07-28T15:48:21.000Z,17.869141
2022-07-28T15:48:42.000Z,0.488281
2022-07-28T15:49:02.000Z,0.597656
2022-07-28T15:49:22.000Z,0.750000
2022-07-28T15:49:42.000Z,0.749023
2022-07-28T15:50:03.000Z,40.595703
2022-07-28T15:50:23.000Z,72.256836
2022-07-28T15:50:43.000Z,52.299805
2022-07-28T15:51:03.000Z,47.944336
2022-07-28T15:51:24.000Z,20.163086
2022-07-28T15:51:44.000Z,21.250977
2022-07-28T15:52:04.000Z,35.865234
2022-07-28T15:52:25.000Z,14.308594
2022-07-28T15:52:45.000Z,16.582031
2022-07-28T15:53:05.000Z,16.931641
2022-07-28T15:53:25.000Z,33.840820
2022-07-28T15:53:46.000Z,5.800781
2022-07-28T15:54:06.000Z,0.463867
2022-07-28T15:54:26.000Z,0.125000
2022-07-28T15:54:47.000Z,0.143555
2022-07-28T15:54:49.000Z,1.896484
2022-07-28T15:59:32.000Z,15.891602
2022-07-28T15:59:52.000Z,35.450195
2022-07-28T16:00:12.000Z,15.368164
2022-07-28T16:00:32.000Z,12.260742
2022-07-28T16:00:53.000Z,16.116211
2022-07-28T16:01:13.000Z,21.560547
2022-07-28T16:01:33.000Z,15.560547
2022-07-28T16:01:54.000Z,47.541016
2022-07-28T16:02:14.000Z,33.977539
2022-07-28T16:02:34.000Z,0.707031
2022-07-28T16:02:54.000Z,0.399414
2022-07-28T16:03:15.000Z,45.135742
2022-07-28T16:03:35.000Z,31.973633
2022-07-28T16:03:55.000Z,30.375000
2022-07-28T16:04:15.000Z,40.596680
2022-07-28T16:04:36.000Z,29.553711
2022-07-28T16:04:56.000Z,30.278320
2022-07-28T16:05:16.000Z,43.645508
2022-07-28T16:05:37.000Z,31.289062
2022-07-28T16:05:57.000Z,11.081055
2022-07-28T16:06:17.000Z,38.883789
2022-07-28T16:06:37.000Z,49.490234
2022-07-28T16:06:58.000Z,31.154297
2022-07-28T16:07:18.000Z,23.239258
2022-07-28T16:07:38.000Z,28.416992
2022-07-28T16:07:58.000Z,38.426758
2022-07-28T16:08:19.000Z,40.220703
2022-07-28T16:08:39.000Z,58.009766
2022-07-28T16:08:59.000Z,44.432617
2022-07-28T16:09:20.000Z,36.924805
2022-07-28T16:09:40.000Z,1.623047
2022-07-28T16:10:00.000Z,17.305664
2022-07-28T16:10:20.000Z,34.173828
2022-07-28T16:10:41.000Z,1.073242
2022-07-28T16:11:01.000Z,12.500000
